Time,TemperatureF,DewpointF,PressureIn,WindDirection,WindDirectionDegrees,WindSpeedMPH,WindSpeedGustMPH,Humidity,HourlyPrecipIn,Conditions,Clouds,dailyrainin,SolarRadiationWatts/m^2,SoftwareType,DateUTC
2013-03-09 00:07:00,28.2,-99.9,30.32,WNW,299,1.0,-999.0,-999,-99.99,,,0.00,0,weatherlink.com 1.10,2013-03-09 06:07:00,
2013-03-09 00:24:00,27.3,-99.9,30.32,NW,311,0.0,-999.0,-999,-99.99,,,0.00,0,weatherlink.com 1.10,2013-03-09 06:24:00,
2013-03-09 00:40:00,26.4,22.0,30.32,NW,312,1.0,-999.0,84,-99.99,,,0.00,0,weatherlink.com 1.10,2013-03-09 06:40:00,
2013-03-09 00:57:00,27.8,24.0,30.31,WNW,301,3.0,-999.0,86,-99.99,,,0.00,0,weatherlink.com 1.10,2013-03-09 06:57:00,
2013-03-09 01:15:00,28.5,24.0,30.31,WNW,296,2.0,-999.0,83,-99.99,,,0.00,0,weatherlink.com 1.10,2013-03-09 07:15:00,
2013-03-09 01:31:00,28.5,24.0,30.30,NW,304,0.0,-999.0,82,-99.99,,,0.00,0,weatherlink.com 1.10,2013-03-09 07:31:00,
2013-03-09 01:47:00,28.1,23.0,30.30,NW,306,2.0,-999.0,82,-99.99,,,0.00,0,weatherlink.com 1.10,2013-03-09 07:47:00,
2013-03-09 02:05:00,28.1,23.0,30.29,NW,308,0.0,-999.0,82,-99.99,,,0.00,0,weatherlink.com 1.10,2013-03-09 08:05:00,
2013-03-09 02:21:00,28.2,24.0,30.28,NW,305,2.0,-999.0,83,-99.99,,,0.00,0,weatherlink.com 1.10,2013-03-09 08:21:00,
2013-03-09 02:38:00,28.4,24.0,30.28,WNW,298,2.0,-999.0,83,-99.99,,,0.00,0,weatherlink.com 1.10,2013-03-09 08:38:00,
2013-03-09 02:55:00,28.8,24.0,30.27,NW,323,0.0,-999.0,82,-99.99,,,0.00,0,weatherlink.com 1.10,2013-03-09 08:55:00,
2013-03-09 03:13:00,29.3,-99.9,30.26,WNW,287,4.0,-999.0,-999,-99.99,,,0.00,0,weatherlink.com 1.10,2013-03-09 09:13:00,
2013-03-09 03:30:00,30.0,-99.9,30.24,NW,305,0.0,-999.0,-999,-99.99,,,0.00,0,weatherlink.com 1.10,2013-03-09 09:30:00,
2013-03-09 03:47:00,30.0,-99.9,30.24,NW,315,1.0,-999.0,-999,-99.99,,,0.00,0,weatherlink.com 1.10,2013-03-09 09:47:00,
2013-03-09 04:05:00,30.1,-99.9,30.23,NW,305,2.0,-999.0,-999,-99.99,,,0.00,0,weatherlink.com 1.10,2013-03-09 10:05:00,
2013-03-09 04:23:00,30.3,-99.9,30.23,NW,315,2.0,-999.0,-999,-99.99,,,0.00,0,weatherlink.com 1.10,2013-03-09 10:23:00,
2013-03-09 04:40:00,30.3,-99.9,30.23,North,0,4.0,-999.0,-999,-99.99,,,0.00,0,weatherlink.com 1.10,2013-03-09 10:40:00,
2013-03-09 04:57:00,30.6,25.0,30.23,NW,309,3.0,-999.0,79,-99.99,,,0.00,0,weatherlink.com 1.10,2013-03-09 10:57:00,
2013-03-09 05:16:00,30.6,25.0,30.25,WNW,285,8.0,-999.0,79,-99.99,,,0.00,0,weatherlink.com 1.10,2013-03-09 11:16:00,
2013-03-09 05:34:00,30.9,25.0,30.24,WNW,299,5.0,-999.0,79,-99.99,,,0.00,0,weatherlink.com 1.10,2013-03-09 11:34:00,
2013-03-09 05:52:00,31.2,25.0,30.23,WNW,288,5.0,-999.0,78,-99.99,,,0.00,0,weatherlink.com 1.10,2013-03-09 11:52:00,
2013-03-09 06:11:00,31.5,25.0,30.22,WNW,299,5.0,-999.0,78,-99.99,,,0.00,0,weatherlink.com 1.10,2013-03-09 12:11:00,
2013-03-09 06:28:00,31.5,25.0,30.22,WNW,288,10.0,-999.0,78,-99.99,,,0.00,0,weatherlink.com 1.10,2013-03-09 12:28:00,
2013-03-09 06:44:00,31.9,26.0,30.22,WNW,282,7.0,-999.0,78,-99.99,,,0.00,5,weatherlink.com 1.10,2013-03-09 12:44:00,
2013-03-09 07:03:00,32.2,26.0,30.22,WNW,299,5.0,-999.0,77,-99.99,,,0.00,25,weatherlink.com 1.10,2013-03-09 13:03:00,
2013-03-09 07:19:00,32.5,26.0,30.21,WNW,295,5.0,-999.0,77,-99.99,,,0.00,25,weatherlink.com 1.10,2013-03-09 13:19:00,
2013-03-09 07:36:00,32.8,26.0,30.21,WNW,291,8.0,-999.0,77,-99.99,,,0.00,72,weatherlink.com 1.10,2013-03-09 13:36:00,
2013-03-09 07:52:00,32.9,26.0,30.22,WNW,291,4.0,-999.0,76,-99.99,,,0.00,72,weatherlink.com 1.10,2013-03-09 13:52:00,
2013-03-09 08:10:00,33.2,26.0,30.22,WNW,289,5.0,-999.0,76,-99.99,,,0.00,67,weatherlink.com 1.10,2013-03-09 14:10:00,
2013-03-09 08:26:00,33.7,27.0,30.21,WNW,298,6.0,-999.0,76,-99.99,,,0.00,95,weatherlink.com 1.10,2013-03-09 14:26:00,
2013-03-09 08:42:00,34.0,27.0,30.21,West,277,7.0,-999.0,76,-99.99,,,0.00,100,weatherlink.com 1.10,2013-03-09 14:42:00,
2013-03-09 08:58:00,34.1,28.0,30.20,WNW,288,5.0,-999.0,78,-99.99,,,0.00,113,weatherlink.com 1.10,2013-03-09 14:58:00,
2013-03-09 09:16:00,33.8,29.0,30.19,NW,311,6.0,-999.0,82,-99.99,,,0.02,167,weatherlink.com 1.10,2013-03-09 15:16:00,
2013-03-09 09:32:00,33.7,29.0,30.18,WNW,287,6.0,-999.0,84,-99.99,,,0.03,123,weatherlink.com 1.10,2013-03-09 15:32:00,
2013-03-09 09:48:00,33.5,30.0,30.16,WNW,298,2.0,-999.0,86,-99.99,,,0.05,123,weatherlink.com 1.10,2013-03-09 15:48:00,
2013-03-09 10:06:00,33.7,31.0,30.17,WNW,285,8.0,-999.0,88,-99.99,,,0.05,123,weatherlink.com 1.10,2013-03-09 16:06:00,
2013-03-09 10:22:00,34.4,31.0,30.15,WNW,301,4.0,-999.0,89,-99.99,,,0.05,123,weatherlink.com 1.10,2013-03-09 16:22:00,
2013-03-09 10:38:00,34.4,31.0,30.13,West,277,8.0,-999.0,89,-99.99,,,0.05,378,weatherlink.com 1.10,2013-03-09 16:38:00,
2013-03-09 10:54:00,35.8,33.0,30.11,North,1,12.0,-999.0,89,-99.99,,,0.05,378,weatherlink.com 1.10,2013-03-09 16:54:00,
2013-03-09 11:12:00,36.9,34.0,30.10,WNW,285,5.0,-999.0,89,-99.99,,,0.05,378,weatherlink.com 1.10,2013-03-09 17:12:00,
2013-03-09 11:28:00,-999.0,-99.9,30.10,WNW,292,6.0,-999.0,-999,-99.99,,,0.05,,weatherlink.com 1.10,2013-03-09 17:28:00,
2013-03-09 11:45:00,38.5,-99.9,30.09,West,275,7.0,-999.0,-999,-99.99,,,0.05,352,weatherlink.com 1.10,2013-03-09 17:45:00,
2013-03-09 12:02:00,37.0,31.0,30.09,West,271,6.0,-999.0,79,-99.99,,,0.05,338,weatherlink.com 1.10,2013-03-09 18:02:00,
2013-03-09 12:18:00,37.2,31.0,30.07,West,265,7.0,-999.0,79,-99.99,,,0.05,324,weatherlink.com 1.10,2013-03-09 18:18:00,
2013-03-09 12:34:00,38.5,31.0,30.07,West,275,7.0,-999.0,74,-99.99,,,0.05,373,weatherlink.com 1.10,2013-03-09 18:34:00,
2013-03-09 12:50:00,38.6,31.0,30.07,WNW,295,3.0,-999.0,74,-99.99,,,0.05,238,weatherlink.com 1.10,2013-03-09 18:50:00,
2013-03-09 13:08:00,38.2,31.0,30.05,West,281,8.0,-999.0,74,-99.99,,,0.05,232,weatherlink.com 1.10,2013-03-09 19:08:00,
2013-03-09 13:25:00,38.3,30.0,30.04,WNW,302,5.0,-999.0,73,-99.99,,,0.05,274,weatherlink.com 1.10,2013-03-09 19:25:00,
2013-03-09 13:42:00,38.3,30.0,30.04,WNW,292,7.0,-999.0,72,-99.99,,,0.05,274,weatherlink.com 1.10,2013-03-09 19:42:00,
2013-03-09 13:59:00,38.5,30.0,30.02,WNW,294,11.0,-999.0,72,-99.99,,,0.05,201,weatherlink.com 1.10,2013-03-09 19:59:00,
2013-03-09 14:16:00,38.2,30.0,30.00,WNW,284,8.0,-999.0,73,-99.99,,,0.05,222,weatherlink.com 1.10,2013-03-09 20:16:00,
2013-03-09 14:33:00,38.2,30.0,30.00,WNW,288,6.0,-999.0,73,-99.99,,,0.05,195,weatherlink.com 1.10,2013-03-09 20:33:00,
2013-03-09 14:49:00,38.0,30.0,29.99,WNW,282,10.0,-999.0,73,-99.99,,,0.05,153,weatherlink.com 1.10,2013-03-09 20:49:00,
2013-03-09 15:07:00,38.0,30.0,29.99,WNW,288,7.0,-999.0,74,-99.99,,,0.05,137,weatherlink.com 1.10,2013-03-09 21:07:00,
2013-03-09 15:23:00,37.9,30.0,29.98,West,278,6.0,-999.0,74,-99.99,,,0.05,137,weatherlink.com 1.10,2013-03-09 21:23:00,
2013-03-09 15:39:00,36.9,30.0,29.97,West,264,8.0,-999.0,76,-99.99,,,0.05,49,weatherlink.com 1.10,2013-03-09 21:39:00,
2013-03-09 15:56:00,36.3,29.0,29.96,West,274,7.0,-999.0,76,-99.99,,,0.05,37,weatherlink.com 1.10,2013-03-09 21:56:00,
2013-03-09 16:14:00,35.9,29.0,29.96,WNW,282,6.0,-999.0,76,-99.99,,,0.05,26,weatherlink.com 1.10,2013-03-09 22:14:00,
2013-03-09 16:30:00,35.8,29.0,29.96,West,275,5.0,-999.0,76,-99.99,,,0.05,32,weatherlink.com 1.10,2013-03-09 22:30:00,
2013-03-09 16:46:00,35.6,29.0,29.95,West,280,8.0,-999.0,76,-99.99,,,0.05,32,weatherlink.com 1.10,2013-03-09 22:46:00,
2013-03-09 17:03:00,-999.0,-99.9,29.95,WNW,282,7.0,-999.0,-999,-99.99,,,0.05,,weatherlink.com 1.10,2013-03-09 23:03:00,
2013-03-09 17:20:00,-999.0,-99.9,29.94,North,-999,-999.0,-999.0,-999,-99.99,,,0.05,,weatherlink.com 1.10,2013-03-09 23:20:00,
2013-03-09 17:37:00,-999.0,-99.9,29.93,West,272,5.0,-999.0,-999,-99.99,,,0.05,,weatherlink.com 1.10,2013-03-09 23:37:00,
2013-03-09 17:54:00,35.6,-99.9,29.93,WNW,282,7.0,-999.0,-999,-99.99,,,0.05,,weatherlink.com 1.10,2013-03-09 23:54:00,
2013-03-09 18:12:00,35.5,-99.9,29.92,WNW,292,5.0,-999.0,-999,-99.99,,,0.07,0,weatherlink.com 1.10,2013-03-10 00:12:00,
2013-03-09 18:28:00,35.3,32.0,29.92,West,271,3.0,-999.0,87,-99.99,,,0.09,0,weatherlink.com 1.10,2013-03-10 00:28:00,
2013-03-09 18:45:00,35.2,32.0,29.94,WNW,282,7.0,-999.0,87,-99.99,,,0.09,0,weatherlink.com 1.10,2013-03-10 00:45:00,
2013-03-09 19:05:00,35.0,32.0,29.94,WNW,282,7.0,-999.0,89,-99.99,,,0.09,0,weatherlink.com 1.10,2013-03-10 01:05:00,
2013-03-09 19:22:00,35.2,33.0,29.93,West,281,8.0,-999.0,90,-99.99,,,0.09,0,weatherlink.com 1.10,2013-03-10 01:22:00,
2013-03-09 19:38:00,35.2,33.0,29.91,WNW,282,7.0,-999.0,90,-99.99,,,0.09,0,weatherlink.com 1.10,2013-03-10 01:38:00,
2013-03-09 19:54:00,35.2,33.0,29.90,WNW,285,6.0,-999.0,90,-99.99,,,0.09,0,weatherlink.com 1.10,2013-03-10 01:54:00,
2013-03-09 20:11:00,35.5,33.0,29.91,WNW,295,3.0,-999.0,90,-99.99,,,0.09,0,weatherlink.com 1.10,2013-03-10 02:11:00,
2013-03-09 20:28:00,35.6,-99.9,29.91,NW,304,2.0,-999.0,-999,-99.99,,,0.09,,weatherlink.com 1.10,2013-03-10 02:28:00,
2013-03-09 20:44:00,35.6,33.0,29.91,WNW,299,2.0,-999.0,89,-99.99,,,0.09,0,weatherlink.com 1.10,2013-03-10 02:44:00,
2013-03-09 21:02:00,35.6,33.0,29.89,WNW,288,5.0,-999.0,89,-99.99,,,0.09,0,weatherlink.com 1.10,2013-03-10 03:02:00,
2013-03-09 21:35:00,35.8,33.0,29.89,NW,311,2.0,-999.0,89,-99.99,,,0.09,0,weatherlink.com 1.10,2013-03-10 03:35:00,
2013-03-09 21:52:00,35.9,33.0,29.90,WNW,302,0.0,-999.0,89,-99.99,,,0.09,0,weatherlink.com 1.10,2013-03-10 03:52:00,
2013-03-09 22:11:00,35.8,33.0,29.89,NW,309,0.0,-999.0,89,-99.99,,,0.09,0,weatherlink.com 1.10,2013-03-10 04:11:00,
2013-03-09 22:27:00,35.5,33.0,29.89,NW,309,0.0,-999.0,92,-99.99,,,0.15,0,weatherlink.com 1.10,2013-03-10 04:27:00,
2013-03-09 22:43:00,35.5,33.0,29.89,NW,313,0.0,-999.0,92,-99.99,,,0.16,0,weatherlink.com 1.10,2013-03-10 04:43:00,
2013-03-09 23:01:00,35.3,33.0,29.88,NW,305,1.0,-999.0,92,-99.99,,,0.16,0,weatherlink.com 1.10,2013-03-10 05:01:00,
2013-03-09 23:18:00,35.3,33.0,29.88,West,268,2.0,-999.0,92,-99.99,,,0.16,0,weatherlink.com 1.10,2013-03-10 05:18:00,
2013-03-09 23:36:00,35.3,34.0,29.86,West,271,2.0,-999.0,94,-99.99,,,0.16,0,weatherlink.com 1.10,2013-03-10 05:36:00,
2013-03-09 23:57:00,35.2,34.0,29.85,WSW,244,2.0,-999.0,95,-99.99,,,0.16,0,weatherlink.com 1.10,2013-03-10 05:57:00,